createdAt,value
2022-08-08T12:06:15.719Z,30.29
2022-08-08T12:07:17.243Z,30.54
2022-08-08T12:08:15.581Z,30.82
2022-08-08T12:09:17.178Z,31.35
2022-08-08T12:10:15.575Z,31.72
2022-08-08T12:11:18.161Z,31.75
2022-08-08T12:12:17.006Z,31.59
2022-08-08T12:13:15.711Z,31.82
2022-08-08T12:14:15.631Z,31.91
2022-08-08T12:15:15.599Z,32.00
2022-08-08T12:16:15.832Z,31.97
2022-08-08T12:17:15.557Z,31.93
2022-08-08T12:18:16.021Z,32.02
2022-08-08T12:19:15.567Z,32.15
2022-08-08T12:20:15.701Z,32.27
2022-08-08T12:21:15.715Z,32.39
2022-08-08T12:22:20.946Z,32.45
2022-08-08T12:23:30.388Z,32.45
2022-08-08T12:24:15.663Z,32.47
2022-08-08T12:25:15.695Z,32.29
2022-08-08T12:26:17.340Z,32.36
2022-08-08T12:27:18.110Z,32.32
2022-08-08T12:28:16.160Z,32.39
2022-08-08T12:29:15.700Z,32.24
2022-08-08T12:30:21.758Z,32.44
2022-08-08T12:31:15.740Z,32.40
2022-08-08T12:32:19.644Z,32.30
2022-08-08T12:33:15.674Z,32.09
2022-08-08T12:34:15.681Z,31.99
2022-08-08T12:35:17.970Z,31.96
2022-08-08T12:36:16.353Z,31.65
2022-08-08T12:37:15.690Z,31.69
2022-08-08T12:38:17.913Z,31.59
2022-08-08T12:39:15.767Z,31.56
2022-08-08T12:40:23.036Z,31.50
2022-08-08T12:41:18.259Z,31.42
2022-08-08T12:42:21.241Z,31.25
2022-08-08T12:43:15.741Z,31.23
2022-08-08T12:44:30.335Z,31.18
2022-08-08T12:45:53.672Z,31.20
2022-08-08T12:46:19.093Z,31.25
2022-08-08T12:47:15.747Z,31.29
2022-08-08T12:48:18.256Z,31.19
2022-08-08T12:49:40.098Z,31.37
2022-08-08T12:50:16.181Z,31.63
2022-08-08T12:51:15.840Z,31.39
2022-08-08T12:52:28.843Z,31.45
2022-08-08T12:53:15.742Z,31.49
2022-08-08T12:54:24.348Z,31.59
2022-08-08T12:55:29.397Z,31.66
2022-08-08T12:56:19.170Z,31.92
2022-08-08T12:57:16.982Z,31.96
2022-08-08T12:58:19.491Z,31.78
2022-08-08T12:59:15.802Z,31.58
2022-08-08T13:00:19.785Z,31.48
2022-08-08T13:01:15.818Z,31.54
2022-08-08T13:02:15.807Z,31.74
2022-08-08T13:03:16.185Z,31.76
2022-08-08T13:04:19.307Z,31.97
2022-08-08T13:05:26.366Z,32.09
2022-08-08T13:06:15.781Z,32.40
2022-08-08T13:07:16.659Z,32.17
2022-08-08T13:08:15.904Z,31.96
2022-08-08T13:09:15.841Z,32.03
2022-08-08T13:10:17.206Z,32.16
2022-08-08T13:11:15.807Z,32.26
2022-08-08T13:12:27.272Z,32.25
2022-08-08T13:13:15.893Z,32.16
2022-08-08T13:14:15.821Z,31.90
2022-08-08T13:15:15.826Z,31.83
2022-08-08T13:16:15.791Z,31.74
2022-08-08T13:18:08.431Z,31.77
2022-08-08T13:18:24.629Z,32.09
2022-08-08T13:19:17.900Z,32.41
2022-08-08T13:20:18.140Z,32.78
2022-08-08T13:21:16.360Z,32.97
2022-08-08T13:22:15.912Z,33.46
2022-08-08T13:23:30.925Z,33.84
2022-08-08T13:24:18.530Z,34.23
2022-08-08T13:25:15.985Z,34.43
2022-08-08T13:26:15.973Z,34.75
2022-08-08T13:27:15.973Z,34.96
2022-08-08T13:28:16.159Z,34.90
2022-08-08T13:29:15.981Z,34.92
2022-08-08T13:30:26.011Z,35.06
2022-08-08T13:31:16.488Z,35.23
2022-08-08T13:32:16.048Z,35.40
2022-08-08T13:33:18.556Z,35.62
2022-08-08T13:34:16.045Z,35.82
2022-08-08T13:35:29.252Z,35.89
2022-08-08T13:36:16.050Z,35.86
2022-08-08T13:37:27.703Z,36.01
2022-08-08T13:38:16.051Z,36.26
2022-08-08T13:39:17.605Z,36.49
2022-08-08T13:40:17.808Z,36.70
2022-08-08T13:41:17.298Z,36.95
2022-08-08T13:42:16.047Z,37.02
2022-08-08T13:43:16.500Z,36.98
2022-08-08T13:44:19.483Z,36.77
2022-08-08T13:45:16.076Z,36.49
2022-08-08T13:46:26.978Z,36.07
2022-08-08T13:47:16.055Z,35.87
2022-08-08T13:48:16.065Z,35.73
2022-08-08T13:50:34.665Z,35.22
2022-08-08T13:50:35.281Z,34.75
2022-08-08T13:51:34.269Z,34.26
2022-08-08T13:52:23.135Z,33.87
2022-08-08T13:53:22.607Z,33.87
2022-08-08T13:54:18.231Z,34.01
2022-08-08T13:55:28.853Z,34.16
2022-08-08T13:56:16.113Z,33.99
2022-08-08T13:57:16.096Z,34.14
2022-08-08T13:58:17.206Z,33.95
2022-08-08T13:59:16.115Z,33.85
2022-08-08T14:00:16.102Z,33.94
2022-08-08T14:01:16.110Z,33.96
2022-08-08T14:02:16.110Z,34.00
2022-08-08T14:03:53.818Z,33.81
2022-08-08T14:04:17.963Z,33.44
2022-08-08T14:05:21.633Z,33.31
2022-08-08T14:06:33.570Z,33.32
2022-08-08T14:07:16.129Z,33.28
2022-08-08T14:08:30.055Z,33.09
2022-08-08T14:09:25.152Z,32.92
2022-08-08T14:10:17.592Z,32.89
2022-08-08T14:11:16.133Z,32.87
2022-08-08T14:12:16.171Z,32.80
2022-08-08T14:13:30.751Z,32.69
2022-08-08T14:14:16.473Z,32.61
2022-08-08T14:15:16.166Z,32.49
2022-08-08T14:16:17.071Z,32.38
2022-08-08T14:17:22.460Z,32.29
2022-08-08T14:18:36.587Z,32.23
2022-08-08T14:19:22.822Z,32.14
2022-08-08T14:20:55.830Z,31.90
2022-08-08T14:21:20.835Z,31.70
2022-08-08T14:22:18.520Z,31.65
2022-08-08T14:23:21.505Z,31.63
2022-08-08T14:24:16.219Z,31.58
2022-08-08T14:25:17.842Z,31.60
2022-08-08T14:26:16.201Z,31.67
2022-08-08T14:27:16.186Z,31.29
2022-08-08T14:28:16.167Z,31.14
2022-08-08T14:29:28.561Z,31.45
2022-08-08T14:30:18.038Z,31.24
2022-08-08T14:31:23.317Z,31.20
2022-08-08T14:32:33.827Z,31.06
2022-08-08T14:33:16.328Z,31.10
2022-08-08T14:34:19.521Z,31.00
2022-08-08T14:35:16.677Z,30.44
2022-08-08T14:36:16.328Z,30.23
2022-08-08T14:37:16.438Z,30.23
2022-08-08T14:38:33.483Z,30.11
2022-08-08T14:39:16.363Z,30.01
2022-08-08T14:40:16.687Z,29.79
2022-08-08T14:41:18.582Z,29.76
2022-08-08T14:42:16.702Z,29.73
2022-08-08T14:43:18.469Z,29.74
2022-08-08T14:44:22.515Z,29.59
2022-08-08T14:45:18.335Z,29.54
2022-08-08T14:46:16.340Z,29.55
2022-08-08T14:47:21.368Z,29.46
2022-08-08T14:48:27.577Z,29.47
2022-08-08T14:49:20.430Z,29.48
2022-08-08T14:50:37.681Z,29.46
2022-08-08T14:51:17.862Z,29.46
2022-08-08T14:52:16.424Z,29.45
2022-08-08T14:53:16.414Z,29.43
2022-08-08T14:54:28.842Z,29.40
2022-08-08T14:55:16.516Z,29.35
2022-08-08T14:56:16.378Z,29.30
2022-08-08T14:57:16.692Z,29.26
2022-08-08T14:58:19.910Z,29.18
2022-08-08T14:59:22.332Z,29.18
2022-08-08T15:00:16.597Z,29.17
2022-08-08T15:01:23.867Z,29.10
2022-08-08T15:02:16.439Z,29.05
2022-08-08T15:03:17.360Z,29.06
2022-08-08T15:04:16.418Z,29.05
2022-08-08T15:05:16.611Z,29.07
2022-08-08T15:06:16.757Z,29.07
2022-08-08T15:07:22.810Z,29.01
2022-08-08T15:08:21.648Z,28.95
2022-08-08T15:09:16.430Z,28.85
2022-08-08T15:10:18.359Z,28.88
2022-08-08T15:11:19.054Z,28.84
2022-08-08T15:12:16.455Z,28.87
2022-08-08T15:13:16.426Z,28.61
2022-08-08T15:14:16.428Z,28.54
2022-08-08T15:15:18.881Z,28.45
2022-08-08T15:16:16.461Z,28.38
2022-08-08T15:17:16.479Z,28.39
2022-08-08T15:18:19.661Z,28.30
2022-08-08T15:19:16.512Z,28.32
2022-08-08T15:20:16.442Z,28.33
2022-08-08T15:21:16.447Z,28.32
2022-08-08T15:22:23.309Z,28.20
2022-08-08T15:23:16.490Z,28.19
2022-08-08T15:24:16.972Z,28.02
2022-08-08T15:25:17.993Z,28.00
2022-08-08T15:26:16.506Z,27.97
2022-08-08T15:27:57.471Z,27.94
2022-08-08T15:28:33.412Z,27.92
2022-08-08T15:29:16.531Z,27.89
2022-08-08T15:30:16.798Z,27.92
2022-08-08T15:31:25.789Z,27.92
2022-08-08T15:32:20.450Z,27.84
2022-08-08T15:33:35.644Z,27.84
2022-08-08T15:34:29.148Z,27.76
2022-08-08T15:35:16.562Z,27.73
2022-08-08T15:36:17.633Z,27.66
2022-08-08T15:37:17.233Z,27.66
2022-08-08T15:38:16.485Z,27.57
2022-08-08T15:39:16.532Z,27.50
2022-08-08T15:40:16.550Z,27.51
2022-08-08T15:41:16.589Z,27.48
2022-08-08T15:42:31.316Z,27.52
2022-08-08T15:43:35.137Z,27.52
2022-08-08T15:44:16.562Z,27.51
2022-08-08T15:45:16.833Z,27.47
2022-08-08T15:46:16.609Z,27.49
2022-08-08T15:47:19.210Z,27.48
2022-08-08T15:48:16.628Z,27.51
2022-08-08T15:49:17.064Z,27.45
2022-08-08T15:50:20.895Z,27.45
2022-08-08T15:51:16.589Z,27.42
2022-08-08T15:52:17.379Z,27.43
2022-08-08T15:53:16.594Z,27.45
2022-08-08T15:54:18.957Z,27.43
2022-08-08T15:55:16.637Z,27.40
2022-08-08T15:56:16.800Z,27.29
2022-08-08T15:57:16.639Z,27.28
2022-08-08T15:58:16.659Z,27.17
2022-08-08T15:59:16.652Z,27.04
2022-08-08T16:00:27.028Z,27.06
2022-08-08T16:01:16.735Z,27.04
2022-08-08T16:02:16.705Z,27.11
2022-08-08T16:03:16.604Z,27.14
2022-08-08T16:04:16.611Z,27.10
2022-08-08T16:05:16.659Z,27.12
2022-08-08T16:06:28.780Z,27.00
2022-08-08T16:07:16.731Z,26.92
2022-08-08T16:08:20.162Z,26.91
2022-08-08T16:13:02.572Z,26.87
2022-08-08T16:13:04.685Z,26.74
2022-08-08T16:13:09.542Z,26.83
2022-08-08T16:13:10.726Z,26.77
2022-08-08T16:13:46.333Z,26.74
2022-08-08T16:14:32.671Z,26.69
2022-08-08T16:15:16.677Z,26.65
2022-08-08T16:16:17.469Z,26.61
2022-08-08T16:17:16.637Z,26.63
2022-08-08T16:18:16.639Z,26.54
2022-08-08T16:19:19.298Z,26.44
2022-08-08T16:20:16.822Z,26.40
2022-08-08T16:21:20.714Z,26.43
2022-08-08T16:22:38.881Z,26.43
2022-08-08T16:23:16.699Z,26.39
2022-08-08T16:24:16.828Z,26.40
2022-08-08T16:25:16.707Z,26.44
2022-08-08T16:26:19.181Z,26.45
2022-08-08T16:27:17.969Z,26.41
2022-08-08T16:28:34.066Z,26.44
